Time;durP1;ratioP1;P1;durP2;ratioP2;P2;SDS_P1;SDS_P2;PMS_P1;PMS_P2;Temp;Humidity;BMP_temperature;BMP_pressure;BME280_temperature;BME280_humidity;BME280_pressure;Samples;Min_cycle;Max_cycle;Signal;HPM_P1;HPM_P2
2022/09/02 00:00:25;;;;;;;3.20;1.30;;;16.00;90.90;;;;;;5040782;28;20181;-82
2022/09/02 00:02:50;;;;;;;2.07;1.17;;;16.00;91.00;;;;;;5039362;28;20630;-82
2022/09/02 00:05:18;;;;;;;5.50;1.40;;;15.80;91.70;;;;;;5039315;28;20549;-83
2022/09/02 00:07:44;;;;;;;0.90;0.90;;;15.80;91.90;;;;;;5038501;28;20254;-82
2022/09/02 00:10:10;;;;;;;2.10;1.87;;;15.80;92.50;;;;;;5039323;28;20177;-83
2022/09/02 00:12:35;;;;;;;1.33;1.00;;;15.80;92.20;;;;;;5038693;28;20185;-82
2022/09/02 00:15:01;;;;;;;5.97;1.10;;;15.80;92.10;;;;;;5038923;28;20208;-83
2022/09/02 00:17:27;;;;;;;4.93;0.90;;;15.90;91.40;;;;;;5037381;28;20193;-83
2022/09/02 00:19:53;;;;;;;2.63;1.00;;;15.90;91.60;;;;;;5036100;28;20180;-80
2022/09/02 00:22:19;;;;;;;6.17;1.10;;;15.70;92.40;;;;;;5036045;28;20173;-80
2022/09/02 00:24:45;;;;;;;5.73;0.87;;;15.70;92.40;;;;;;5036172;28;20219;-80
2022/09/02 00:27:10;;;;;;;1.23;0.90;;;15.70;92.10;;;;;;5036166;28;20200;-80
2022/09/02 00:29:38;;;;;;;3.80;1.00;;;15.70;91.90;;;;;;5036325;28;20231;-80
2022/09/02 00:32:04;;;;;;;4.20;1.07;;;15.70;92.30;;;;;;5035420;28;20522;-80
2022/09/02 00:34:30;;;;;;;3.00;1.10;;;15.70;92.40;;;;;;5036149;28;20668;-80
2022/09/02 00:36:57;;;;;;;3.40;0.90;;;15.60;92.50;;;;;;5035822;28;20254;-80
2022/09/02 00:39:23;;;;;;;2.73;1.00;;;15.70;91.90;;;;;;5035903;28;20181;-80
2022/09/02 00:41:49;;;;;;;1.03;0.97;;;15.60;92.30;;;;;;5035700;28;20175;-80
2022/09/02 00:44:17;;;;;;;2.47;1.43;;;15.70;92.10;;;;;;5055324;28;20174;-80
2022/09/02 00:46:43;;;;;;;2.83;1.00;;;15.60;92.50;;;;;;5037784;28;20670;-81
2022/09/02 00:49:23;;;;;;;2.60;1.00;;;15.60;92.20;;;;;;5040179;28;20181;-83
2022/09/02 00:51:57;;;;;;;1.30;1.20;;;15.60;92.40;;;;;;5039597;28;20193;-82
2022/09/02 00:54:25;;;;;;;3.80;1.10;;;15.60;92.10;;;;;;5039706;28;20196;-84
2022/09/02 00:56:51;;;;;;;4.23;1.00;;;15.50;92.40;;;;;;5038758;28;20201;-82
2022/09/02 00:59:52;;;;;;;5.87;1.00;;;15.50;91.80;;;;;;5039144;28;20176;-83
2022/09/02 01:02:22;;;;;;;2.93;0.90;;;15.60;91.90;;;;;;5038985;28;20158;-81
2022/09/02 01:04:48;;;;;;;1.50;1.00;;;15.50;91.70;;;;;;5039220;28;20218;-81
2022/09/02 01:07:14;;;;;;;4.20;1.20;;;15.40;92.20;;;;;;5038745;28;20197;-82
2022/09/02 01:09:40;;;;;;;1.00;0.90;;;15.50;91.80;;;;;;5038147;28;20169;-82
2022/09/02 01:12:06;;;;;;;1.47;1.07;;;15.30;92.40;;;;;;5038178;28;20542;-83
2022/09/02 01:14:33;;;;;;;3.17;1.10;;;15.50;91.90;;;;;;5039045;28;20236;-82
2022/09/02 01:17:01;;;;;;;1.43;0.80;;;15.50;92.10;;;;;;5043508;28;20199;-82
2022/09/02 01:19:36;;;;;;;2.50;0.90;;;15.50;91.60;;;;;;5043438;28;20176;-82
2022/09/02 01:22:13;;;;;;;2.07;1.00;;;15.50;92.00;;;;;;5042272;28;20200;-82
2022/09/02 01:24:40;;;;;;;1.30;1.17;;;15.50;91.70;;;;;;5043806;28;20184;-82
2022/09/02 01:27:05;;;;;;;0.90;0.90;;;15.50;92.10;;;;;;5040821;28;20197;-82
2022/09/02 01:29:31;;;;;;;1.30;1.20;;;15.60;92.00;;;;;;5040134;28;20174;-82
2022/09/02 01:31:57;;;;;;;3.03;1.00;;;15.40;92.50;;;;;;5041081;28;20187;-82
2022/09/02 01:34:23;;;;;;;4.80;1.23;;;15.50;92.30;;;;;;5041265;28;20670;-82
2022/09/02 01:36:49;;;;;;;3.27;0.90;;;15.60;91.70;;;;;;5041179;28;21035;-83
2022/09/02 01:39:15;;;;;;;1.63;1.07;;;15.60;91.60;;;;;;5041460;28;20204;-82
2022/09/02 01:41:41;;;;;;;1.70;1.00;;;15.50;91.80;;;;;;5041360;28;20268;-83
2022/09/02 01:44:07;;;;;;;4.40;1.37;;;15.60;92.40;;;;;;5041234;28;20248;-82
2022/09/02 01:46:34;;;;;;;1.47;0.97;;;15.60;92.40;;;;;;5059010;28;20193;-83
2022/09/02 01:48:59;;;;;;;2.43;1.27;;;15.60;92.10;;;;;;5041415;28;20589;-82
2022/09/02 01:51:25;;;;;;;1.17;0.90;;;15.70;91.90;;;;;;5040122;28;20189;-81
2022/09/02 01:53:51;;;;;;;2.90;1.00;;;15.70;91.90;;;;;;5040620;28;20642;-83
2022/09/02 01:56:16;;;;;;;1.27;0.90;;;15.70;91.70;;;;;;5040266;28;20611;-82
2022/09/02 01:58:42;;;;;;;2.20;1.00;;;15.80;91.10;;;;;;5040199;28;20212;-82
2022/09/02 02:01:09;;;;;;;1.70;1.30;;;15.80;91.50;;;;;;5039845;28;20200;-82
2022/09/02 02:03:36;;;;;;;5.33;1.20;;;15.70;91.80;;;;;;5040060;28;20203;-83
2022/09/02 02:06:11;;;;;;;1.97;1.37;;;15.70;91.60;;;;;;5039339;28;20196;-82
2022/09/02 02:08:37;;;;;;;3.20;1.30;;;15.70;91.30;;;;;;5039704;28;20234;-81
2022/09/02 02:11:04;;;;;;;2.87;1.37;;;15.70;91.50;;;;;;5038513;28;20257;-88
2022/09/02 02:13:30;;;;;;;1.43;1.20;;;15.80;92.00;;;;;;5039354;28;20181;-82
2022/09/02 02:15:56;;;;;;;6.90;1.30;;;15.80;91.20;;;;;;5039023;28;20197;-82
2022/09/02 02:18:21;;;;;;;3.17;1.33;;;15.80;91.40;;;;;;5040007;28;20271;-83
2022/09/02 02:20:47;;;;;;;1.80;1.27;;;15.80;91.60;;;;;;5039659;28;20556;-82
2022/09/02 02:23:13;;;;;;;3.27;1.27;;;15.80;91.70;;;;;;5039250;28;20183;-82
2022/09/02 02:25:39;;;;;;;3.43;1.23;;;15.70;91.80;;;;;;5039510;28;20597;-82
2022/09/02 02:28:05;;;;;;;1.57;1.17;;;15.80;91.70;;;;;;5039453;28;20197;-82
2022/09/02 02:30:31;;;;;;;3.40;1.30;;;15.80;91.80;;;;;;5039678;28;20272;-82
2022/09/02 02:32:56;;;;;;;1.73;1.00;;;15.80;91.80;;;;;;5040076;28;20614;-81
2022/09/02 02:35:22;;;;;;;5.03;1.10;;;15.80;91.60;;;;;;5039401;28;20204;-83
2022/09/02 02:37:49;;;;;;;1.40;1.10;;;15.80;91.60;;;;;;5039389;28;20561;-82
2022/09/02 02:40:21;;;;;;;1.20;1.10;;;15.80;91.70;;;;;;5039028;28;20193;-82
2022/09/02 02:42:47;;;;;;;2.17;1.13;;;15.70;92.00;;;;;;5038574;28;20181;-83
2022/09/02 02:45:13;;;;;;;2.43;1.00;;;15.70;91.70;;;;;;5038734;28;20251;-82
2022/09/02 02:47:41;;;;;;;2.13;1.20;;;15.70;92.00;;;;;;5039143;28;20210;-81
2022/09/02 02:50:09;;;;;;;3.17;1.23;;;15.80;91.80;;;;;;5038689;28;20170;-81
2022/09/02 02:52:35;;;;;;;0.90;0.90;;;15.70;91.60;;;;;;5040085;28;20200;-83
2022/09/02 02:55:01;;;;;;;1.20;1.10;;;15.70;91.90;;;;;;5039154;28;20669;-83
2022/09/02 02:57:26;;;;;;;1.60;0.90;;;15.70;92.40;;;;;;5038567;28;20604;-81
2022/09/02 02:59:52;;;;;;;1.50;1.23;;;15.70;92.30;;;;;;5038903;28;20262;-82
2022/09/02 03:02:17;;;;;;;2.27;1.00;;;15.70;92.40;;;;;;5039216;28;20182;-82
2022/09/02 03:04:43;;;;;;;3.10;1.20;;;15.70;91.90;;;;;;5038378;28;20264;-82
2022/09/02 03:07:09;;;;;;;1.27;1.20;;;15.60;92.50;;;;;;5038571;28;20197;-80
2022/09/02 03:09:35;;;;;;;7.27;1.50;;;15.60;92.90;;;;;;5054791;28;20173;-80
2022/09/02 03:12:01;;;;;;;2.30;1.30;;;15.70;92.00;;;;;;5037480;28;20247;-80
2022/09/02 03:14:27;;;;;;;2.53;1.07;;;15.70;92.60;;;;;;5037364;28;20227;-80
2022/09/02 03:16:52;;;;;;;1.30;1.20;;;15.60;92.40;;;;;;5038510;28;20197;-80
2022/09/02 03:19:18;;;;;;;3.67;1.60;;;15.60;92.40;;;;;;5037281;28;20258;-80
2022/09/02 03:21:44;;;;;;;5.33;1.10;;;15.60;92.50;;;;;;5036959;28;20182;-80
2022/09/02 03:24:10;;;;;;;4.30;1.50;;;15.60;92.30;;;;;;5037507;28;20572;-80
2022/09/02 03:26:36;;;;;;;6.47;1.53;;;15.50;92.40;;;;;;5037141;28;20205;-80
2022/09/02 03:29:03;;;;;;;1.90;1.10;;;15.50;92.30;;;;;;5035898;28;20653;-80
2022/09/02 03:31:28;;;;;;;6.33;1.20;;;15.50;92.40;;;;;;5035780;28;20181;-81
2022/09/02 03:33:54;;;;;;;6.13;1.23;;;15.60;92.70;;;;;;5035948;28;20695;-80
2022/09/02 03:36:26;;;;;;;4.13;1.33;;;15.50;92.80;;;;;;5035708;28;20287;-80
2022/09/02 03:38:53;;;;;;;4.67;1.30;;;15.40;92.80;;;;;;5036034;28;20199;-80
2022/09/02 03:41:19;;;;;;;1.37;1.07;;;15.50;92.70;;;;;;5035721;28;20261;-80
2022/09/02 03:43:45;;;;;;;2.07;1.10;;;15.50;92.90;;;;;;5035834;28;20173;-80
2022/09/02 03:46:12;;;;;;;1.13;1.10;;;15.30;92.90;;;;;;5035124;28;20194;-80
2022/09/02 03:48:39;;;;;;;1.43;1.13;;;15.30;93.10;;;;;;5035757;28;20183;-80
2022/09/02 03:51:06;;;;;;;1.80;0.83;;;15.30;93.40;;;;;;5036927;28;20180;-80
2022/09/02 03:53:31;;;;;;;2.50;1.20;;;15.30;93.80;;;;;;5038897;28;20192;-80
2022/09/02 03:56:03;;;;;;;0.90;0.90;;;15.30;93.70;;;;;;5038776;28;20670;-80
2022/09/02 03:58:29;;;;;;;2.47;0.93;;;15.30;93.80;;;;;;5038471;28;20173;-80
2022/09/02 04:00:55;;;;;;;4.40;1.20;;;15.10;93.50;;;;;;5038578;28;20260;-80
2022/09/02 04:03:20;;;;;;;4.40;0.90;;;15.10;93.80;;;;;;5038262;28;20177;-80
2022/09/02 04:05:51;;;;;;;1.40;1.00;;;15.10;94.10;;;;;;5037403;28;20185;-81
2022/09/02 04:08:17;;;;;;;3.13;1.20;;;15.00;94.20;;;;;;5038318;28;20185;-80
2022/09/02 04:10:43;;;;;;;10.90;1.40;;;14.90;94.00;;;;;;5037575;28;20177;-80
2022/09/02 04:13:08;;;;;;;0.90;0.90;;;14.80;94.20;;;;;;5037903;28;20188;-80
2022/09/02 04:15:38;;;;;;;2.50;1.33;;;14.70;94.20;;;;;;5037155;28;20205;-80
2022/09/02 04:18:04;;;;;;;6.03;1.30;;;14.80;94.10;;;;;;5037702;28;20193;-80
2022/09/02 04:20:30;;;;;;;1.47;1.10;;;14.70;94.30;;;;;;5038598;28;20269;-80
2022/09/02 04:22:55;;;;;;;2.03;1.00;;;14.60;94.50;;;;;;5044238;28;20177;-80
2022/09/02 04:25:22;;;;;;;4.33;1.27;;;14.60;94.60;;;;;;5044039;28;20589;-80
2022/09/02 04:27:48;;;;;;;1.87;1.20;;;14.60;94.50;;;;;;5043663;28;20395;-80
2022/09/02 04:30:15;;;;;;;4.00;1.20;;;14.70;94.50;;;;;;5043418;28;20259;-82
2022/09/02 04:32:42;;;;;;;1.20;1.10;;;14.50;94.90;;;;;;5043342;28;20625;-83
2022/09/02 04:35:08;;;;;;;1.17;1.10;;;14.50;95.00;;;;;;5042996;28;20215;-82
2022/09/02 04:37:34;;;;;;;3.10;1.13;;;14.50;94.90;;;;;;5043776;28;20219;-83
2022/09/02 04:39:59;;;;;;;1.67;1.10;;;14.40;95.40;;;;;;5043386;28;20189;-83
2022/09/02 04:42:25;;;;;;;3.03;0.97;;;14.30;95.20;;;;;;5043051;28;20171;-81
2022/09/02 04:44:53;;;;;;;1.37;1.00;;;14.20;95.60;;;;;;5043378;28;20211;-82
2022/09/02 04:47:19;;;;;;;3.50;1.20;;;14.20;95.20;;;;;;5043541;28;20220;-82
2022/09/02 04:49:45;;;;;;;2.03;1.20;;;14.20;95.80;;;;;;5043396;28;20638;-81
2022/09/02 04:52:10;;;;;;;6.33;1.23;;;14.30;95.40;;;;;;5043098;28;20176;-81
2022/09/02 04:54:36;;;;;;;5.77;1.60;;;14.30;95.30;;;;;;5042747;28;20291;-82
2022/09/02 04:57:02;;;;;;;4.03;1.43;;;14.10;95.80;;;;;;5042695;28;20224;-82
2022/09/02 04:59:28;;;;;;;1.73;1.00;;;14.10;95.70;;;;;;5042943;28;20231;-82
2022/09/02 05:01:53;;;;;;;6.23;1.40;;;14.20;95.70;;;;;;5042803;28;20173;-81
2022/09/02 05:04:19;;;;;;;5.40;1.20;;;14.20;95.80;;;;;;5043374;28;20551;-82
2022/09/02 05:06:45;;;;;;;1.93;1.40;;;14.30;95.70;;;;;;5042868;28;20200;-82
2022/09/02 05:09:12;;;;;;;3.73;1.30;;;14.10;96.00;;;;;;5042706;28;20211;-82
2022/09/02 05:11:37;;;;;;;2.47;1.30;;;14.20;96.20;;;;;;5041411;28;20223;-81
2022/09/02 05:14:05;;;;;;;5.17;1.50;;;14.10;96.20;;;;;;5043365;28;20668;-81
2022/09/02 05:16:35;;;;;;;3.27;1.40;;;14.10;96.00;;;;;;5043095;28;20188;-83
2022/09/02 05:19:03;;;;;;;1.50;1.33;;;14.10;96.10;;;;;;5043576;28;20574;-82
2022/09/02 05:21:30;;;;;;;10.37;1.40;;;14.00;96.30;;;;;;5059925;28;20203;-82
2022/09/02 05:23:57;;;;;;;2.70;1.37;;;14.00;96.20;;;;;;5042085;28;20659;-81
2022/09/02 05:26:23;;;;;;;6.07;1.33;;;14.20;96.20;;;;;;5041846;28;20197;-81
2022/09/02 05:28:49;;;;;;;6.37;1.30;;;14.20;96.00;;;;;;5042340;28;20173;-82
2022/09/02 05:31:18;;;;;;;1.80;1.30;;;14.20;96.20;;;;;;5042129;28;20638;-82
2022/09/02 05:33:44;;;;;;;1.70;1.13;;;14.10;96.80;;;;;;5055997;28;20171;-80
2022/09/02 05:36:15;;;;;;;4.70;1.50;;;14.10;96.60;;;;;;5038473;28;20251;-80
2022/09/02 05:38:42;;;;;;;5.17;1.17;;;14.30;96.30;;;;;;5038752;28;20184;-80
2022/09/02 05:41:18;;;;;;;2.37;2.17;;;14.20;96.30;;;;;;5037801;28;20184;-80
2022/09/02 05:43:44;;;;;;;4.00;1.57;;;14.30;96.70;;;;;;5038373;28;20177;-80
2022/09/02 05:46:16;;;;;;;5.63;2.00;;;14.40;96.30;;;;;;5037936;28;20196;-80
2022/09/02 05:51:27;;;;;;;5.63;1.50;;;14.60;96.00;;;;;;5056253;28;20234;-80
2022/09/02 05:53:58;;;;;;;5.10;1.33;;;14.70;96.30;;;;;;5037790;28;20173;-80
2022/09/02 05:56:26;;;;;;;1.87;1.30;;;14.90;95.90;;;;;;5054989;28;20189;-80
2022/09/02 05:58:53;;;;;;;1.70;1.30;;;15.20;96.10;;;;;;5038725;28;20549;-80
2022/09/02 06:01:19;;;;;;;9.70;1.80;;;15.30;95.30;;;;;;5036870;28;20256;-80
2022/09/02 06:03:45;;;;;;;2.33;1.30;;;15.40;96.00;;;;;;5054966;28;20568;-80
2022/09/02 06:06:11;;;;;;;9.40;1.27;;;15.60;95.00;;;;;;5037247;28;20201;-81
2022/09/02 06:08:37;;;;;;;2.63;1.17;;;15.80;95.50;;;;;;5055810;28;20178;-80
2022/09/02 06:11:06;;;;;;;2.93;1.37;;;15.90;94.80;;;;;;5036925;28;20174;-80
2022/09/02 06:13:35;;;;;;;5.60;1.27;;;16.00;94.80;;;;;;5038208;28;20173;-81
2022/09/02 06:16:01;;;;;;;2.97;1.30;;;16.20;94.60;;;;;;5038549;28;20584;-81
2022/09/02 06:18:27;;;;;;;2.80;1.20;;;16.40;93.90;;;;;;5039919;28;20761;-82
2022/09/02 06:20:53;;;;;;;4.63;1.40;;;16.70;94.20;;;;;;5040474;28;20545;-82
2022/09/02 06:23:19;;;;;;;8.70;1.43;;;17.10;93.60;;;;;;5039658;28;20173;-81
2022/09/02 06:25:47;;;;;;;6.07;1.50;;;17.20;93.60;;;;;;5040108;28;20256;-81
2022/09/02 06:28:13;;;;;;;5.00;1.50;;;17.80;93.00;;;;;;5040947;28;20182;-84
2022/09/02 06:30:41;;;;;;;7.85;1.75;;;17.70;92.70;;;;;;5039938;28;20185;-83
2022/09/02 06:33:08;;;;;;;5.63;1.50;;;17.80;92.60;;;;;;5039941;28;20646;-82
2022/09/02 06:35:38;;;;;;;4.35;1.15;;;18.10;92.70;;;;;;5039754;28;20212;-82
2022/09/02 06:38:04;;;;;;;5.35;1.85;;;18.30;92.40;;;;;;5040131;28;20193;-82
2022/09/02 06:40:30;;;;;;;3.72;1.42;;;18.50;92.10;;;;;;5039951;28;20196;-83
2022/09/02 06:42:55;;;;;;;14.48;1.63;;;18.50;91.70;;;;;;5039129;28;20165;-82
2022/09/02 06:45:23;;;;;;;2.05;1.60;;;18.50;91.70;;;;;;5038167;28;20634;-82
2022/09/02 06:47:49;;;;;;;6.85;1.55;;;18.50;91.40;;;;;;5039311;28;20197;-82
2022/09/02 06:50:15;;;;;;;4.10;1.92;;;19.00;91.60;;;;;;5038978;28;20215;-82
2022/09/02 06:52:40;;;;;;;1.80;1.42;;;19.30;90.70;;;;;;5056370;28;20244;-83
2022/09/02 06:55:07;;;;;;;9.65;1.70;;;19.50;91.20;;;;;;5037708;28;20670;-82
2022/09/02 06:57:32;;;;;;;3.80;1.60;;;19.50;90.90;;;;;;5035522;28;20292;-81
2022/09/02 06:59:58;;;;;;;8.00;1.40;;;19.90;90.70;;;;;;5036455;28;20207;-82
2022/09/02 07:02:24;;;;;;;2.35;1.25;;;19.60;89.90;;;;;;5035816;28;20592;-82
2022/09/02 07:07:39;;;;;;;6.50;1.63;;;20.00;89.20;;;;;;5054373;28;20243;-81
2022/09/02 07:10:08;;;;;;;9.35;1.40;;;20.20;89.70;;;;;;5035799;28;20208;-82
2022/09/02 07:12:36;;;;;;;6.88;1.60;;;19.80;89.90;;;;;;5034528;28;20711;-81
2022/09/02 07:15:02;;;;;;;3.22;1.38;;;20.30;90.00;;;;;;5053931;28;20209;-79
2022/09/02 07:17:28;;;;;;;4.18;1.40;;;20.30;89.40;;;;;;5036159;28;20193;-79
2022/09/02 07:19:56;;;;;;;2.65;1.75;;;19.90;88.90;;;;;;5035937;28;20173;-81
2022/09/02 07:22:22;;;;;;;3.42;1.30;;;19.80;90.00;;;;;;5037382;28;20199;-81
2022/09/02 07:24:47;;;;;;;1.90;1.50;;;20.30;89.70;;;;;;5037967;28;20649;-82
2022/09/02 07:27:13;;;;;;;7.60;1.70;;;20.70;88.50;;;;;;5055984;28;20185;-82
2022/09/02 07:29:42;;;;;;;7.40;1.60;;;21.70;88.40;;;;;;5038006;28;20173;-81
2022/09/02 07:32:08;;;;;;;5.70;1.40;;;21.50;86.50;;;;;;5038044;28;20178;-82
2022/09/02 07:34:34;;;;;;;4.88;1.48;;;21.70;86.00;;;;;;5038436;28;20216;-82
2022/09/02 07:37:00;;;;;;;5.25;1.27;;;22.00;86.10;;;;;;5038095;28;20219;-82
2022/09/02 07:39:26;;;;;;;1.63;1.52;;;22.30;85.50;;;;;;5038241;28;20259;-82
2022/09/02 07:41:52;;;;;;;5.78;1.60;;;21.70;86.30;;;;;;5036881;28;20161;-82
2022/09/02 07:44:20;;;;;;;1.70;1.30;;;22.10;85.30;;;;;;5037500;28;20184;-82
2022/09/02 07:46:46;;;;;;;4.00;1.35;;;22.60;84.50;;;;;;5037868;28;20232;-83
2022/09/02 07:49:12;;;;;;;4.00;1.33;;;22.40;86.00;;;;;;5037689;28;20173;-83
2022/09/02 07:51:42;;;;;;;3.33;1.20;;;23.20;84.40;;;;;;5036935;28;20563;-82
2022/09/02 07:54:10;;;;;;;2.17;1.30;;;22.90;84.30;;;;;;5037853;28;20196;-83
2022/09/02 07:56:35;;;;;;;6.38;1.42;;;23.40;81.80;;;;;;5036606;28;20192;-82
2022/09/02 07:59:01;;;;;;;2.08;1.35;;;23.20;83.70;;;;;;5055188;28;20514;-82
2022/09/02 08:01:28;;;;;;;3.72;1.50;;;22.40;82.40;;;;;;5037296;28;20195;-81
2022/09/02 08:03:54;;;;;;;3.78;1.30;;;23.00;84.40;;;;;;5036989;28;20173;-83
2022/09/02 08:06:20;;;;;;;6.88;1.30;;;23.00;83.40;;;;;;5035858;28;20185;-82
2022/09/02 08:08:46;;;;;;;4.07;1.40;;;22.90;85.10;;;;;;5036893;28;20165;-83
2022/09/02 08:11:12;;;;;;;3.75;1.42;;;23.30;82.70;;;;;;5035667;28;20173;-83
2022/09/02 08:13:38;;;;;;;4.05;1.70;;;23.00;82.40;;;;;;5038247;28;20256;-83
2022/09/02 08:16:04;;;;;;;4.82;1.45;;;22.90;83.60;;;;;;5036948;28;20204;-84
2022/09/02 08:18:30;;;;;;;2.35;1.42;;;24.00;83.30;;;;;;5037824;28;20172;-83
2022/09/02 08:20:56;;;;;;;12.02;1.95;;;23.90;81.50;;;;;;5037740;28;20177;-82
2022/09/02 08:23:22;;;;;;;7.20;1.48;;;24.20;81.90;;;;;;5038350;28;20307;-84
2022/09/02 08:25:47;;;;;;;6.20;1.50;;;24.20;80.80;;;;;;5037553;28;20205;-83
2022/09/02 08:28:14;;;;;;;4.45;1.40;;;24.70;82.10;;;;;;5038281;28;20264;-82
2022/09/02 08:30:39;;;;;;;2.28;1.40;;;24.30;80.60;;;;;;5037965;28;20352;-82
2022/09/02 08:33:05;;;;;;;3.83;1.60;;;24.90;80.90;;;;;;5037346;28;20292;-82
2022/09/02 08:35:32;;;;;;;2.47;1.30;;;24.40;82.30;;;;;;5037794;28;20204;-83
2022/09/02 08:38:00;;;;;;;2.20;1.33;;;24.50;81.10;;;;;;5037214;28;20190;-81
2022/09/02 08:40:35;;;;;;;6.20;1.58;;;23.90;80.80;;;;;;5037134;28;20280;-82
2022/09/02 08:43:02;;;;;;;4.57;1.50;;;24.20;79.50;;;;;;5037408;28;20169;-82
2022/09/02 08:45:38;;;;;;;6.57;1.50;;;25.20;81.00;;;;;;5037166;28;20181;-84
2022/09/02 08:48:08;;;;;;;8.30;1.95;;;24.30;80.60;;;;;;5035041;28;20232;-84
2022/09/02 08:50:37;;;;;;;4.32;1.40;;;25.10;80.10;;;;;;5037629;28;20592;-82
2022/09/02 08:53:23;;;;;;;9.50;1.42;;;25.60;79.10;;;;;;5037726;28;20185;-84
2022/09/02 08:55:55;;;;;;;8.27;1.90;;;25.40;78.80;;;;;;5037286;28;20224;-82
2022/09/02 08:58:26;;;;;;;3.53;1.55;;;26.00;78.40;;;;;;5038224;28;20181;-82
2022/09/02 09:01:23;;;;;;;3.35;1.38;;;25.80;77.80;;;;;;5037946;28;20173;-83
2022/09/02 09:04:10;;;;;;;5.78;1.67;;;26.50;78.40;;;;;;5020453;28;20708;-84
2022/09/02 09:06:37;;;;;;;2.67;1.63;;;25.10;77.80;;;;;;5038052;28;20203;-83
2022/09/02 09:09:11;;;;;;;5.75;1.67;;;25.20;78.50;;;;;;5042021;28;20539;-83
2022/09/02 09:12:00;;;;;;;5.28;1.40;;;25.40;78.90;;;;;;5041123;28;20177;-84
2022/09/02 09:14:57;;;;;;;4.78;1.85;;;25.90;78.10;;;;;;5041894;28;20225;-82
2022/09/02 09:17:38;;;;;;;6.60;1.80;;;25.30;79.10;;;;;;5041888;28;20246;-82
2022/09/02 09:20:14;;;;;;;7.80;2.10;;;25.30;78.30;;;;;;5041684;28;20200;-81
2022/09/02 09:22:41;;;;;;;1.67;1.45;;;25.60;78.90;;;;;;5041324;28;20165;-81
2022/09/02 09:25:15;;;;;;;10.43;1.63;;;25.90;77.60;;;;;;5039549;28;20211;-82
2022/09/02 09:27:41;;;;;;;6.60;2.38;;;25.80;78.80;;;;;;5039315;28;20280;-83
2022/09/02 09:30:09;;;;;;;3.08;1.33;;;26.30;78.10;;;;;;5039034;28;20184;-82
2022/09/02 09:32:48;;;;;;;5.47;1.67;;;25.80;78.40;;;;;;5056893;28;20165;-83
2022/09/02 09:35:16;;;;;;;8.68;1.88;;;25.30;79.00;;;;;;5056300;28;20185;-82
2022/09/02 09:37:47;;;;;;;4.18;1.33;;;25.20;76.80;;;;;;5039118;28;20680;-81
2022/09/02 09:40:19;;;;;;;6.53;1.80;;;25.90;77.60;;;;;;5039144;28;20208;-81
2022/09/02 09:42:47;;;;;;;2.42;1.40;;;26.20;78.30;;;;;;5038321;28;20165;-81
2022/09/02 09:45:24;;;;;;;5.25;1.50;;;26.40;77.60;;;;;;5038465;28;20185;-83
2022/09/02 09:48:12;;;;;;;4.78;2.00;;;25.70;77.30;;;;;;5038360;28;20193;-81
2022/09/02 09:50:37;;;;;;;4.25;1.40;;;25.40;76.90;;;;;;5038343;28;20173;-81
2022/09/02 09:53:16;;;;;;;1.42;1.30;;;26.00;77.70;;;;;;5037429;28;20177;-81
2022/09/02 09:55:54;;;;;;;2.15;1.48;;;26.10;76.60;;;;;;5037989;28;20201;-82
2022/09/02 09:58:31;;;;;;;2.50;1.50;;;26.50;75.50;;;;;;5039632;28;20170;-82
2022/09/02 10:00:59;;;;;;;4.47;1.73;;;27.10;75.90;;;;;;5036704;28;20204;-82
2022/09/02 10:03:27;;;;;;;3.83;1.70;;;27.60;76.10;;;;;;5039239;28;20715;-82
2022/09/02 10:06:15;;;;;;;4.35;1.70;;;26.50;75.50;;;;;;5055867;28;20173;-82
2022/09/02 10:08:54;;;;;;;5.85;1.58;;;26.70;75.50;;;;;;5038553;28;20177;-83
2022/09/02 10:11:31;;;;;;;8.60;1.70;;;26.50;76.70;;;;;;5037153;28;20645;-82
2022/09/02 10:14:02;;;;;;;3.65;1.60;;;26.50;75.30;;;;;;5037932;28;20199;-82
2022/09/02 10:17:12;;;;;;;1.40;1.35;;;26.60;75.00;;;;;;5037142;28;20193;-82
2022/09/02 10:19:58;;;;;;;2.92;1.70;;;26.80;75.30;;;;;;5037508;28;20188;-82
2022/09/02 10:23:11;;;;;;;2.95;1.55;;;25.80;75.10;;;;;;5037978;28;20178;-82
2022/09/02 10:26:10;;;;;;;5.80;1.45;;;26.50;76.20;;;;;;4964277;28;20178;-81
2022/09/02 10:28:41;;;;;;;5.60;1.80;;;26.60;75.40;;;;;;5031199;28;20231;-82
2022/09/02 10:31:07;;;;;;;3.83;1.50;;;26.60;76.00;;;;;;5037936;28;20177;-82
2022/09/02 10:33:33;;;;;;;5.35;1.70;;;27.20;75.70;;;;;;5037673;28;20177;-81
2022/09/02 10:36:24;;;;;;;3.60;1.52;;;27.10;74.40;;;;;;5037117;28;20622;-81
2022/09/02 10:38:50;;;;;;;4.07;1.50;;;27.60;75.80;;;;;;5037129;28;20169;-81
2022/09/02 10:41:19;;;;;;;2.63;1.20;;;27.70;74.20;;;;;;5036850;28;20303;-81
2022/09/02 10:44:09;;;;;;;2.92;1.40;;;28.70;72.00;;;;;;5036426;28;20166;-82
2022/09/02 10:46:47;;;;;;;3.53;1.52;;;27.80;73.20;;;;;;5037001;28;20193;-81
2022/09/02 10:49:22;;;;;;;3.35;1.58;;;26.60;74.50;;;;;;5037083;28;20173;-81
2022/09/02 10:52:06;;;;;;;4.20;1.80;;;26.80;74.80;;;;;;5037386;28;20175;-83
2022/09/02 10:54:38;;;;;;;8.57;1.80;;;26.80;74.80;;;;;;5037915;28;20197;-81
2022/09/02 10:57:19;;;;;;;4.85;1.90;;;27.10;76.20;;;;;;5038473;28;20224;-82
2022/09/02 11:00:01;;;;;;;6.40;1.90;;;27.40;74.50;;;;;;5039174;28;20174;-82
2022/09/02 11:02:33;;;;;;;4.28;1.83;;;27.90;74.10;;;;;;5037596;28;20177;-81
2022/09/02 11:05:03;;;;;;;5.25;1.50;;;27.10;73.50;;;;;;5037715;28;20184;-81
2022/09/02 11:07:35;;;;;;;2.38;1.35;;;26.40;75.30;;;;;;5037167;28;20197;-81
2022/09/02 11:10:14;;;;;;;1.75;1.45;;;27.70;76.00;;;;;;5037145;28;20177;-82
2022/09/02 11:12:47;;;;;;;2.10;1.65;;;27.70;74.40;;;;;;5037196;28;20183;-83
2022/09/02 11:15:34;;;;;;;1.63;1.50;;;27.40;74.90;;;;;;5037537;28;20193;-81
2022/09/02 11:18:16;;;;;;;1.65;1.50;;;27.00;74.40;;;;;;5036483;28;20674;-81
2022/09/02 11:20:42;;;;;;;1.77;1.55;;;28.20;73.80;;;;;;5036841;28;20537;-81
2022/09/02 11:23:35;;;;;;;5.00;1.77;;;27.60;74.00;;;;;;5037523;28;20166;-82
2022/09/02 11:26:13;;;;;;;1.30;1.30;;;29.10;71.90;;;;;;5036401;28;20231;-81
2022/09/02 11:29:03;;;;;;;4.20;1.38;;;29.50;70.50;;;;;;5039290;28;20173;-83
2022/09/02 11:31:35;;;;;;;1.80;1.50;;;28.80;71.30;;;;;;5037097;28;20177;-82
2022/09/02 11:34:13;;;;;;;5.30;1.50;;;28.90;72.60;;;;;;5038424;28;20184;-83
2022/09/02 11:36:39;;;;;;;1.55;1.42;;;28.10;73.70;;;;;;5038701;28;20596;-80
2022/09/02 11:39:15;;;;;;;1.42;1.33;;;27.80;72.30;;;;;;5038011;28;20652;-80
2022/09/02 11:42:26;;;;;;;2.38;1.38;;;27.30;72.10;;;;;;5037639;28;20609;-81
2022/09/02 11:45:09;;;;;;;1.73;1.50;;;27.00;73.60;;;;;;5001985;28;20653;-83
2022/09/02 11:47:52;;;;;;;4.88;1.60;;;27.70;73.50;;;;;;5038764;28;20197;-82
2022/09/02 11:50:37;;;;;;;1.20;1.20;;;27.90;69.80;;;;;;5039601;28;20212;-83
2022/09/02 11:53:21;;;;;;;5.55;1.40;;;27.90;68.90;;;;;;5039120;28;20178;-83
2022/09/02 11:56:10;;;;;;;2.45;1.50;;;28.60;69.40;;;;;;5040063;28;20215;-83
2022/09/02 11:58:40;;;;;;;4.25;1.42;;;28.10;69.60;;;;;;4991555;28;20684;-84
2022/09/02 12:01:26;;;;;;;2.75;1.50;;;29.40;68.30;;;;;;5056909;28;20169;-82
2022/09/02 12:04:10;;;;;;;1.95;1.40;;;27.30;67.90;;;;;;5040472;28;20530;-83
2022/09/02 12:06:36;;;;;;;2.60;1.58;;;27.50;69.10;;;;;;5039950;28;20185;-82
2022/09/02 12:09:08;;;;;;;2.55;1.30;;;28.00;69.10;;;;;;5040010;28;20192;-81
2022/09/02 12:11:46;;;;;;;2.10;1.50;;;28.80;67.80;;;;;;5040987;28;20181;-82
2022/09/02 12:14:24;;;;;;;3.40;1.42;;;27.80;69.90;;;;;;5039561;28;20172;-82
2022/09/02 12:17:02;;;;;;;1.35;1.25;;;27.60;69.80;;;;;;5040709;28;20200;-82
2022/09/02 12:19:41;;;;;;;4.53;1.80;;;27.10;70.70;;;;;;5041120;28;20165;-82
2022/09/02 12:22:16;;;;;;;2.13;1.60;;;26.90;70.70;;;;;;5038914;28;20219;-82
2022/09/02 12:24:58;;;;;;;7.38;1.80;;;26.60;71.20;;;;;;5037268;28;20184;-81
2022/09/02 12:27:35;;;;;;;1.40;1.30;;;26.70;70.40;;;;;;5038433;28;20248;-79
2022/09/02 12:30:03;;;;;;;2.45;1.45;;;26.40;71.10;;;;;;5037666;28;20180;-82
2022/09/02 12:32:51;;;;;;;2.08;1.50;;;26.10;70.80;;;;;;5038250;28;20231;-81
2022/09/02 12:35:38;;;;;;;2.53;1.50;;;26.10;71.50;;;;;;5037597;28;20244;-80
